sensor_id;sensor_type;location;lat;lon;timestamp;P1;durP1;ratioP1;P2;durP2;ratioP2
8526;SDS011;4301;48.362;8.478;2023-04-24T00:02:00;1.17;;;0.90;;
8526;SDS011;4301;48.362;8.478;2023-04-24T00:04:28;1.93;;;0.90;;
8526;SDS011;4301;48.362;8.478;2023-04-24T00:06:56;1.23;;;1.00;;
8526;SDS011;4301;48.362;8.478;2023-04-24T00:09:25;1.70;;;1.00;;
8526;SDS011;4301;48.362;8.478;2023-04-24T00:11:53;1.13;;;1.13;;
8526;SDS011;4301;48.362;8.478;2023-04-24T00:14:21;1.07;;;1.00;;
8526;SDS011;4301;48.362;8.478;2023-04-24T00:16:48;3.17;;;1.20;;
8526;SDS011;4301;48.362;8.478;2023-04-24T00:19:15;0.90;;;0.90;;
8526;SDS011;4301;48.362;8.478;2023-04-24T00:21:42;0.90;;;0.90;;
8526;SDS011;4301;48.362;8.478;2023-04-24T00:24:09;1.27;;;1.17;;
8526;SDS011;4301;48.362;8.478;2023-04-24T00:26:36;1.33;;;1.00;;
8526;SDS011;4301;48.362;8.478;2023-04-24T00:29:04;2.23;;;0.90;;
8526;SDS011;4301;48.362;8.478;2023-04-24T00:31:31;1.50;;;1.07;;
8526;SDS011;4301;48.362;8.478;2023-04-24T00:33:59;1.30;;;1.20;;
8526;SDS011;4301;48.362;8.478;2023-04-24T00:36:27;2.43;;;1.00;;
8526;SDS011;4301;48.362;8.478;2023-04-24T00:38:55;1.20;;;1.10;;
8526;SDS011;4301;48.362;8.478;2023-04-24T00:41:22;1.17;;;1.00;;
8526;SDS011;4301;48.362;8.478;2023-04-24T00:43:50;1.10;;;1.00;;
8526;SDS011;4301;48.362;8.478;2023-04-24T00:46:19;1.60;;;1.03;;
8526;SDS011;4301;48.362;8.478;2023-04-24T00:48:47;1.83;;;1.00;;
8526;SDS011;4301;48.362;8.478;2023-04-24T00:51:14;1.93;;;1.07;;
8526;SDS011;4301;48.362;8.478;2023-04-24T00:53:41;4.83;;;1.10;;
8526;SDS011;4301;48.362;8.478;2023-04-24T00:56:08;1.73;;;0.90;;
8526;SDS011;4301;48.362;8.478;2023-04-24T00:58:35;1.47;;;1.00;;
8526;SDS011;4301;48.362;8.478;2023-04-24T01:01:02;3.70;;;1.30;;
8526;SDS011;4301;48.362;8.478;2023-04-24T01:03:33;2.87;;;1.00;;
8526;SDS011;4301;48.362;8.478;2023-04-24T01:06:02;2.30;;;1.00;;
8526;SDS011;4301;48.362;8.478;2023-04-24T01:08:30;1.77;;;1.03;;
8526;SDS011;4301;48.362;8.478;2023-04-24T01:10:57;1.10;;;0.90;;
8526;SDS011;4301;48.362;8.478;2023-04-24T01:13:24;1.27;;;1.13;;
8526;SDS011;4301;48.362;8.478;2023-04-24T01:15:51;1.97;;;1.03;;
8526;SDS011;4301;48.362;8.478;2023-04-24T01:18:18;1.30;;;1.20;;
8526;SDS011;4301;48.362;8.478;2023-04-24T01:20:48;1.33;;;1.20;;
8526;SDS011;4301;48.362;8.478;2023-04-24T01:23:20;4.10;;;1.10;;
8526;SDS011;4301;48.362;8.478;2023-04-24T01:25:47;1.20;;;1.07;;
8526;SDS011;4301;48.362;8.478;2023-04-24T01:28:15;1.47;;;1.10;;
8526;SDS011;4301;48.362;8.478;2023-04-24T01:30:42;1.23;;;1.13;;
8526;SDS011;4301;48.362;8.478;2023-04-24T01:33:11;1.30;;;1.20;;
8526;SDS011;4301;48.362;8.478;2023-04-24T01:35:38;1.00;;;1.00;;
8526;SDS011;4301;48.362;8.478;2023-04-24T01:38:05;1.03;;;1.00;;
8526;SDS011;4301;48.362;8.478;2023-04-24T01:40:33;1.40;;;1.20;;
8526;SDS011;4301;48.362;8.478;2023-04-24T01:43:00;1.40;;;1.00;;
8526;SDS011;4301;48.362;8.478;2023-04-24T01:45:28;1.17;;;1.07;;
8526;SDS011;4301;48.362;8.478;2023-04-24T01:47:55;1.20;;;1.00;;
8526;SDS011;4301;48.362;8.478;2023-04-24T01:50:23;3.63;;;1.50;;
8526;SDS011;4301;48.362;8.478;2023-04-24T01:52:50;1.20;;;1.20;;
8526;SDS011;4301;48.362;8.478;2023-04-24T01:55:17;1.13;;;1.03;;
8526;SDS011;4301;48.362;8.478;2023-04-24T01:57:45;1.90;;;1.10;;
8526;SDS011;4301;48.362;8.478;2023-04-24T02:00:12;1.83;;;1.30;;
8526;SDS011;4301;48.362;8.478;2023-04-24T02:02:40;1.03;;;1.00;;
8526;SDS011;4301;48.362;8.478;2023-04-24T02:05:07;2.23;;;1.30;;
8526;SDS011;4301;48.362;8.478;2023-04-24T02:07:36;1.60;;;1.03;;
8526;SDS011;4301;48.362;8.478;2023-04-24T02:10:03;1.50;;;1.10;;
8526;SDS011;4301;48.362;8.478;2023-04-24T02:12:31;1.23;;;1.10;;
8526;SDS011;4301;48.362;8.478;2023-04-24T02:14:59;1.20;;;0.97;;
8526;SDS011;4301;48.362;8.478;2023-04-24T02:17:26;1.00;;;1.00;;
8526;SDS011;4301;48.362;8.478;2023-04-24T02:19:53;1.20;;;1.10;;
8526;SDS011;4301;48.362;8.478;2023-04-24T02:22:20;1.97;;;1.10;;
8526;SDS011;4301;48.362;8.478;2023-04-24T02:24:47;1.07;;;1.07;;
8526;SDS011;4301;48.362;8.478;2023-04-24T02:27:14;1.37;;;0.93;;
8526;SDS011;4301;48.362;8.478;2023-04-24T02:29:41;1.43;;;0.90;;
8526;SDS011;4301;48.362;8.478;2023-04-24T02:32:09;0.97;;;0.80;;
8526;SDS011;4301;48.362;8.478;2023-04-24T02:34:37;1.40;;;1.07;;
8526;SDS011;4301;48.362;8.478;2023-04-24T02:37:04;1.57;;;1.00;;
8526;SDS011;4301;48.362;8.478;2023-04-24T02:39:31;3.20;;;1.10;;
8526;SDS011;4301;48.362;8.478;2023-04-24T02:41:57;0.80;;;0.80;;
8526;SDS011;4301;48.362;8.478;2023-04-24T02:44:25;0.80;;;0.80;;
8526;SDS011;4301;48.362;8.478;2023-04-24T02:46:52;0.90;;;0.90;;
8526;SDS011;4301;48.362;8.478;2023-04-24T02:49:20;1.77;;;1.03;;
8526;SDS011;4301;48.362;8.478;2023-04-24T02:51:47;0.90;;;0.90;;
8526;SDS011;4301;48.362;8.478;2023-04-24T02:54:14;3.03;;;1.00;;
8526;SDS011;4301;48.362;8.478;2023-04-24T02:56:41;1.00;;;1.00;;
8526;SDS011;4301;48.362;8.478;2023-04-24T02:59:08;2.00;;;1.43;;
8526;SDS011;4301;48.362;8.478;2023-04-24T03:01:35;2.13;;;1.13;;
8526;SDS011;4301;48.362;8.478;2023-04-24T03:04:02;1.47;;;0.93;;
8526;SDS011;4301;48.362;8.478;2023-04-24T03:06:31;1.27;;;1.03;;
8526;SDS011;4301;48.362;8.478;2023-04-24T03:09:00;2.53;;;1.00;;
8526;SDS011;4301;48.362;8.478;2023-04-24T03:11:28;1.30;;;1.17;;
8526;SDS011;4301;48.362;8.478;2023-04-24T03:13:55;1.10;;;1.10;;
8526;SDS011;4301;48.362;8.478;2023-04-24T03:16:22;1.30;;;1.20;;
8526;SDS011;4301;48.362;8.478;2023-04-24T03:18:49;2.63;;;1.10;;
8526;SDS011;4301;48.362;8.478;2023-04-24T03:21:16;1.00;;;1.00;;
8526;SDS011;4301;48.362;8.478;2023-04-24T03:23:44;1.20;;;1.10;;
8526;SDS011;4301;48.362;8.478;2023-04-24T03:26:11;0.97;;;0.97;;
8526;SDS011;4301;48.362;8.478;2023-04-24T03:28:38;1.00;;;1.00;;
8526;SDS011;4301;48.362;8.478;2023-04-24T03:31:05;1.57;;;1.17;;
8526;SDS011;4301;48.362;8.478;2023-04-24T03:33:32;2.07;;;1.20;;
8526;SDS011;4301;48.362;8.478;2023-04-24T03:35:59;1.23;;;1.10;;
8526;SDS011;4301;48.362;8.478;2023-04-24T03:38:26;1.20;;;1.10;;
8526;SDS011;4301;48.362;8.478;2023-04-24T03:40:54;3.03;;;1.00;;
8526;SDS011;4301;48.362;8.478;2023-04-24T03:43:21;1.30;;;1.17;;
8526;SDS011;4301;48.362;8.478;2023-04-24T03:45:48;1.80;;;1.03;;
8526;SDS011;4301;48.362;8.478;2023-04-24T03:48:15;1.13;;;1.00;;
8526;SDS011;4301;48.362;8.478;2023-04-24T03:50:42;1.90;;;1.10;;
8526;SDS011;4301;48.362;8.478;2023-04-24T03:53:09;2.43;;;1.03;;
8526;SDS011;4301;48.362;8.478;2023-04-24T03:55:36;2.93;;;1.30;;
8526;SDS011;4301;48.362;8.478;2023-04-24T03:58:04;1.30;;;1.20;;
8526;SDS011;4301;48.362;8.478;2023-04-24T04:00:31;1.50;;;1.40;;
8526;SDS011;4301;48.362;8.478;2023-04-24T04:02:59;2.17;;;1.03;;
8526;SDS011;4301;48.362;8.478;2023-04-24T04:05:26;1.80;;;1.70;;
8526;SDS011;4301;48.362;8.478;2023-04-24T04:07:53;1.87;;;1.70;;
8526;SDS011;4301;48.362;8.478;2023-04-24T04:10:20;1.73;;;1.63;;
8526;SDS011;4301;48.362;8.478;2023-04-24T04:12:47;3.13;;;1.90;;
8526;SDS011;4301;48.362;8.478;2023-04-24T04:15:16;1.83;;;1.73;;
8526;SDS011;4301;48.362;8.478;2023-04-24T04:17:43;1.60;;;1.57;;
8526;SDS011;4301;48.362;8.478;2023-04-24T04:20:10;2.80;;;2.03;;
8526;SDS011;4301;48.362;8.478;2023-04-24T04:22:38;2.30;;;1.90;;
8526;SDS011;4301;48.362;8.478;2023-04-24T04:25:06;1.80;;;1.70;;
8526;SDS011;4301;48.362;8.478;2023-04-24T04:27:33;2.13;;;1.97;;
8526;SDS011;4301;48.362;8.478;2023-04-24T04:30:01;2.00;;;1.90;;
8526;SDS011;4301;48.362;8.478;2023-04-24T04:32:31;1.80;;;1.70;;
8526;SDS011;4301;48.362;8.478;2023-04-24T04:34:58;4.60;;;1.93;;
8526;SDS011;4301;48.362;8.478;2023-04-24T04:37:28;1.80;;;1.70;;
8526;SDS011;4301;48.362;8.478;2023-04-24T04:39:55;2.70;;;1.97;;
8526;SDS011;4301;48.362;8.478;2023-04-24T04:42:23;1.97;;;1.83;;
8526;SDS011;4301;48.362;8.478;2023-04-24T04:44:50;1.97;;;1.87;;
8526;SDS011;4301;48.362;8.478;2023-04-24T04:47:17;1.90;;;1.80;;
8526;SDS011;4301;48.362;8.478;2023-04-24T04:49:45;2.17;;;2.07;;
8526;SDS011;4301;48.362;8.478;2023-04-24T04:52:13;2.37;;;2.10;;
8526;SDS011;4301;48.362;8.478;2023-04-24T04:54:42;2.00;;;1.90;;
8526;SDS011;4301;48.362;8.478;2023-04-24T04:57:08;1.90;;;1.80;;
8526;SDS011;4301;48.362;8.478;2023-04-24T04:59:37;2.03;;;1.90;;
8526;SDS011;4301;48.362;8.478;2023-04-24T05:02:04;2.45;;;2.25;;
8526;SDS011;4301;48.362;8.478;2023-04-24T05:04:31;2.10;;;2.00;;
8526;SDS011;4301;48.362;8.478;2023-04-24T05:06:59;2.00;;;1.80;;
8526;SDS011;4301;48.362;8.478;2023-04-24T05:09:26;2.20;;;2.10;;
8526;SDS011;4301;48.362;8.478;2023-04-24T05:11:54;2.00;;;1.90;;
8526;SDS011;4301;48.362;8.478;2023-04-24T05:14:21;1.90;;;1.80;;
8526;SDS011;4301;48.362;8.478;2023-04-24T05:16:48;2.30;;;2.17;;
8526;SDS011;4301;48.362;8.478;2023-04-24T05:19:15;3.87;;;2.40;;
8526;SDS011;4301;48.362;8.478;2023-04-24T05:21:42;2.50;;;2.40;;
8526;SDS011;4301;48.362;8.478;2023-04-24T05:24:10;2.47;;;2.20;;
8526;SDS011;4301;48.362;8.478;2023-04-24T05:26:37;2.40;;;2.30;;
8526;SDS011;4301;48.362;8.478;2023-04-24T05:29:05;2.53;;;2.33;;
8526;SDS011;4301;48.362;8.478;2023-04-24T05:31:32;2.72;;;2.30;;
8526;SDS011;4301;48.362;8.478;2023-04-24T05:33:59;2.50;;;2.10;;
8526;SDS011;4301;48.362;8.478;2023-04-24T05:36:25;3.93;;;2.50;;
8526;SDS011;4301;48.362;8.478;2023-04-24T05:38:53;2.10;;;2.00;;
8526;SDS011;4301;48.362;8.478;2023-04-24T05:41:22;2.70;;;2.40;;
8526;SDS011;4301;48.362;8.478;2023-04-24T05:43:50;2.73;;;2.53;;
8526;SDS011;4301;48.362;8.478;2023-04-24T05:46:17;2.77;;;2.57;;
8526;SDS011;4301;48.362;8.478;2023-04-24T05:48:43;3.53;;;2.40;;
8526;SDS011;4301;48.362;8.478;2023-04-24T05:51:10;3.07;;;2.77;;
8526;SDS011;4301;48.362;8.478;2023-04-24T05:53:37;2.73;;;2.50;;
8526;SDS011;4301;48.362;8.478;2023-04-24T05:56:04;4.97;;;2.43;;
8526;SDS011;4301;48.362;8.478;2023-04-24T05:58:33;2.67;;;2.47;;
8526;SDS011;4301;48.362;8.478;2023-04-24T06:01:00;2.67;;;2.47;;
8526;SDS011;4301;48.362;8.478;2023-04-24T06:03:27;2.60;;;2.40;;
8526;SDS011;4301;48.362;8.478;2023-04-24T06:05:54;2.60;;;2.40;;
8526;SDS011;4301;48.362;8.478;2023-04-24T06:08:21;2.77;;;2.50;;
8526;SDS011;4301;48.362;8.478;2023-04-24T06:10:48;7.73;;;2.80;;
8526;SDS011;4301;48.362;8.478;2023-04-24T06:13:15;4.67;;;2.93;;
8526;SDS011;4301;48.362;8.478;2023-04-24T06:15:43;3.17;;;2.40;;
8526;SDS011;4301;48.362;8.478;2023-04-24T06:18:10;3.10;;;2.87;;
8526;SDS011;4301;48.362;8.478;2023-04-24T06:20:37;2.60;;;2.40;;
8526;SDS011;4301;48.362;8.478;2023-04-24T06:23:05;2.80;;;2.60;;
8526;SDS011;4301;48.362;8.478;2023-04-24T06:25:32;4.33;;;2.53;;
8526;SDS011;4301;48.362;8.478;2023-04-24T06:27:59;3.27;;;2.50;;
8526;SDS011;4301;48.362;8.478;2023-04-24T06:30:26;2.60;;;2.40;;
8526;SDS011;4301;48.362;8.478;2023-04-24T06:32:55;3.23;;;2.30;;
8526;SDS011;4301;48.362;8.478;2023-04-24T06:35:22;3.07;;;2.87;;
8526;SDS011;4301;48.362;8.478;2023-04-24T06:37:49;2.80;;;2.60;;
8526;SDS011;4301;48.362;8.478;2023-04-24T06:40:17;2.50;;;2.30;;
8526;SDS011;4301;48.362;8.478;2023-04-24T06:42:44;2.70;;;2.40;;
8526;SDS011;4301;48.362;8.478;2023-04-24T06:45:11;3.50;;;2.30;;
8526;SDS011;4301;48.362;8.478;2023-04-24T06:47:38;2.03;;;1.90;;
8526;SDS011;4301;48.362;8.478;2023-04-24T06:50:07;2.07;;;1.97;;
8526;SDS011;4301;48.362;8.478;2023-04-24T06:52:34;2.57;;;2.20;;
8526;SDS011;4301;48.362;8.478;2023-04-24T06:55:02;2.10;;;2.00;;
8526;SDS011;4301;48.362;8.478;2023-04-24T06:57:29;2.70;;;2.00;;
8526;SDS011;4301;48.362;8.478;2023-04-24T06:59:56;2.70;;;1.90;;
8526;SDS011;4301;48.362;8.478;2023-04-24T07:02:24;2.30;;;2.20;;
8526;SDS011;4301;48.362;8.478;2023-04-24T07:04:52;2.73;;;1.90;;
8526;SDS011;4301;48.362;8.478;2023-04-24T07:07:21;2.33;;;2.13;;
8526;SDS011;4301;48.362;8.478;2023-04-24T07:09:49;1.93;;;1.83;;
8526;SDS011;4301;48.362;8.478;2023-04-24T07:12:19;3.13;;;2.07;;
8526;SDS011;4301;48.362;8.478;2023-04-24T07:14:46;2.30;;;2.10;;
8526;SDS011;4301;48.362;8.478;2023-04-24T07:17:13;2.30;;;2.10;;
8526;SDS011;4301;48.362;8.478;2023-04-24T07:19:41;2.27;;;2.17;;
8526;SDS011;4301;48.362;8.478;2023-04-24T07:22:08;3.67;;;2.30;;
8526;SDS011;4301;48.362;8.478;2023-04-24T07:24:38;2.23;;;2.00;;
8526;SDS011;4301;48.362;8.478;2023-04-24T07:27:05;3.73;;;2.10;;
8526;SDS011;4301;48.362;8.478;2023-04-24T07:29:31;2.40;;;2.00;;
8526;SDS011;4301;48.362;8.478;2023-04-24T07:31:58;1.87;;;1.77;;
8526;SDS011;4301;48.362;8.478;2023-04-24T07:34:25;2.03;;;1.93;;
8526;SDS011;4301;48.362;8.478;2023-04-24T07:36:52;2.40;;;2.20;;
8526;SDS011;4301;48.362;8.478;2023-04-24T07:39:19;2.13;;;1.97;;
8526;SDS011;4301;48.362;8.478;2023-04-24T07:41:48;2.13;;;2.00;;
8526;SDS011;4301;48.362;8.478;2023-04-24T07:44:14;3.10;;;2.23;;
8526;SDS011;4301;48.362;8.478;2023-04-24T07:46:41;2.57;;;2.17;;
8526;SDS011;4301;48.362;8.478;2023-04-24T07:49:08;2.50;;;2.23;;
8526;SDS011;4301;48.362;8.478;2023-04-24T07:51:36;2.00;;;1.90;;
8526;SDS011;4301;48.362;8.478;2023-04-24T07:54:04;2.63;;;2.10;;
8526;SDS011;4301;48.362;8.478;2023-04-24T07:56:32;2.67;;;2.10;;
8526;SDS011;4301;48.362;8.478;2023-04-24T07:59:01;1.73;;;1.70;;
8526;SDS011;4301;48.362;8.478;2023-04-24T08:01:27;3.07;;;2.10;;
8526;SDS011;4301;48.362;8.478;2023-04-24T08:03:54;1.90;;;1.80;;
8526;SDS011;4301;48.362;8.478;2023-04-24T08:06:21;2.77;;;2.13;;
8526;SDS011;4301;48.362;8.478;2023-04-24T08:08:49;3.33;;;2.20;;
8526;SDS011;4301;48.362;8.478;2023-04-24T08:11:16;2.57;;;1.90;;
8526;SDS011;4301;48.362;8.478;2023-04-24T08:13:43;2.20;;;2.00;;
8526;SDS011;4301;48.362;8.478;2023-04-24T08:16:11;2.73;;;2.10;;
8526;SDS011;4301;48.362;8.478;2023-04-24T08:18:38;2.10;;;2.00;;
8526;SDS011;4301;48.362;8.478;2023-04-24T08:21:05;3.53;;;2.50;;
8526;SDS011;4301;48.362;8.478;2023-04-24T08:23:32;2.07;;;1.97;;
8526;SDS011;4301;48.362;8.478;2023-04-24T08:25:59;4.27;;;2.00;;
8526;SDS011;4301;48.362;8.478;2023-04-24T08:28:26;3.30;;;2.17;;
8526;SDS011;4301;48.362;8.478;2023-04-24T08:30:54;2.30;;;2.10;;
8526;SDS011;4301;48.362;8.478;2023-04-24T08:33:23;2.83;;;2.40;;
8526;SDS011;4301;48.362;8.478;2023-04-24T08:35:50;2.97;;;2.37;;
8526;SDS011;4301;48.362;8.478;2023-04-24T08:38:18;3.57;;;2.40;;
8526;SDS011;4301;48.362;8.478;2023-04-24T08:40:45;3.00;;;2.60;;
8526;SDS011;4301;48.362;8.478;2023-04-24T08:43:14;3.30;;;3.00;;
8526;SDS011;4301;48.362;8.478;2023-04-24T08:45:42;4.57;;;3.33;;
8526;SDS011;4301;48.362;8.478;2023-04-24T08:48:09;3.33;;;2.90;;
8526;SDS011;4301;48.362;8.478;2023-04-24T08:50:37;3.17;;;2.87;;
8526;SDS011;4301;48.362;8.478;2023-04-24T08:53:07;3.67;;;2.67;;
8526;SDS011;4301;48.362;8.478;2023-04-24T08:55:35;3.47;;;2.83;;
8526;SDS011;4301;48.362;8.478;2023-04-24T08:58:03;4.90;;;3.10;;
8526;SDS011;4301;48.362;8.478;2023-04-24T09:00:30;5.27;;;3.43;;
8526;SDS011;4301;48.362;8.478;2023-04-24T09:03:00;4.27;;;2.87;;
8526;SDS011;4301;48.362;8.478;2023-04-24T09:05:28;4.07;;;2.93;;
8526;SDS011;4301;48.362;8.478;2023-04-24T09:07:57;2.83;;;2.30;;
8526;SDS011;4301;48.362;8.478;2023-04-24T09:10:28;3.47;;;2.37;;
8526;SDS011;4301;48.362;8.478;2023-04-24T09:12:55;2.90;;;2.50;;
8526;SDS011;4301;48.362;8.478;2023-04-24T09:15:26;3.23;;;2.60;;
8526;SDS011;4301;48.362;8.478;2023-04-24T09:17:54;3.37;;;2.80;;
8526;SDS011;4301;48.362;8.478;2023-04-24T09:20:21;2.60;;;2.40;;
8526;SDS011;4301;48.362;8.478;2023-04-24T09:22:48;3.07;;;2.30;;
8526;SDS011;4301;48.362;8.478;2023-04-24T09:25:22;2.23;;;1.90;;
8526;SDS011;4301;48.362;8.478;2023-04-24T09:27:53;2.60;;;2.33;;
8526;SDS011;4301;48.362;8.478;2023-04-24T09:30:21;2.63;;;1.83;;
8526;SDS011;4301;48.362;8.478;2023-04-24T09:32:48;2.37;;;1.70;;
8526;SDS011;4301;48.362;8.478;2023-04-24T09:35:15;2.07;;;1.80;;
8526;SDS011;4301;48.362;8.478;2023-04-24T09:37:43;2.37;;;2.00;;
8526;SDS011;4301;48.362;8.478;2023-04-24T09:40:12;3.27;;;1.90;;
8526;SDS011;4301;48.362;8.478;2023-04-24T09:42:44;1.70;;;1.60;;
8526;SDS011;4301;48.362;8.478;2023-04-24T09:45:12;1.53;;;1.40;;
8526;SDS011;4301;48.362;8.478;2023-04-24T09:47:40;1.57;;;1.30;;
8526;SDS011;4301;48.362;8.478;2023-04-24T09:50:13;3.50;;;1.40;;
8526;SDS011;4301;48.362;8.478;2023-04-24T09:52:42;1.50;;;1.40;;
8526;SDS011;4301;48.362;8.478;2023-04-24T09:55:16;1.30;;;1.20;;
8526;SDS011;4301;48.362;8.478;2023-04-24T09:57:50;1.57;;;1.37;;
8526;SDS011;4301;48.362;8.478;2023-04-24T10:00:18;1.40;;;1.30;;
8526;SDS011;4301;48.362;8.478;2023-04-24T10:02:51;1.37;;;1.33;;
8526;SDS011;4301;48.362;8.478;2023-04-24T10:05:23;1.30;;;1.20;;
8526;SDS011;4301;48.362;8.478;2023-04-24T10:07:51;1.50;;;1.40;;
8526;SDS011;4301;48.362;8.478;2023-04-24T10:10:22;1.90;;;1.60;;
8526;SDS011;4301;48.362;8.478;2023-04-24T10:12:50;1.77;;;1.67;;
8526;SDS011;4301;48.362;8.478;2023-04-24T10:15:18;2.97;;;1.80;;
8526;SDS011;4301;48.362;8.478;2023-04-24T10:17:46;2.00;;;1.80;;
8526;SDS011;4301;48.362;8.478;2023-04-24T10:20:17;1.40;;;1.30;;
8526;SDS011;4301;48.362;8.478;2023-04-24T10:22:48;4.13;;;1.70;;
8526;SDS011;4301;48.362;8.478;2023-04-24T10:25:17;3.07;;;1.50;;
8526;SDS011;4301;48.362;8.478;2023-04-24T10:27:46;1.67;;;1.57;;
8526;SDS011;4301;48.362;8.478;2023-04-24T10:30:15;1.40;;;1.40;;
8526;SDS011;4301;48.362;8.478;2023-04-24T10:32:42;1.20;;;1.20;;
8526;SDS011;4301;48.362;8.478;2023-04-24T10:35:10;1.50;;;1.40;;
8526;SDS011;4301;48.362;8.478;2023-04-24T10:37:39;1.27;;;1.20;;
8526;SDS011;4301;48.362;8.478;2023-04-24T10:40:09;1.53;;;1.40;;
8526;SDS011;4301;48.362;8.478;2023-04-24T10:42:39;1.30;;;1.20;;
8526;SDS011;4301;48.362;8.478;2023-04-24T10:45:16;1.43;;;1.33;;
8526;SDS011;4301;48.362;8.478;2023-04-24T10:47:51;1.63;;;1.40;;
8526;SDS011;4301;48.362;8.478;2023-04-24T10:50:18;1.30;;;1.17;;
8526;SDS011;4301;48.362;8.478;2023-04-24T10:52:46;1.27;;;1.17;;
8526;SDS011;4301;48.362;8.478;2023-04-24T10:55:13;2.27;;;1.27;;
8526;SDS011;4301;48.362;8.478;2023-04-24T10:57:40;2.33;;;1.40;;
8526;SDS011;4301;48.362;8.478;2023-04-24T11:00:29;1.67;;;1.30;;
8526;SDS011;4301;48.362;8.478;2023-04-24T11:02:56;1.40;;;1.30;;
8526;SDS011;4301;48.362;8.478;2023-04-24T11:05:49;1.30;;;1.20;;
8526;SDS011;4301;48.362;8.478;2023-04-24T11:08:21;1.27;;;1.17;;
8526;SDS011;4301;48.362;8.478;2023-04-24T11:11:03;1.30;;;1.20;;
8526;SDS011;4301;48.362;8.478;2023-04-24T11:16:33;1.40;;;1.30;;
8526;SDS011;4301;48.362;8.478;2023-04-24T11:19:17;1.50;;;1.40;;
8526;SDS011;4301;48.362;8.478;2023-04-24T11:21:46;1.03;;;1.03;;
8526;SDS011;4301;48.362;8.478;2023-04-24T11:24:27;1.57;;;1.47;;
8526;SDS011;4301;48.362;8.478;2023-04-24T11:26:56;1.77;;;1.20;;
8526;SDS011;4301;48.362;8.478;2023-04-24T11:29:38;1.83;;;1.20;;
8526;SDS011;4301;48.362;8.478;2023-04-24T11:32:24;2.97;;;1.50;;
8526;SDS011;4301;48.362;8.478;2023-04-24T11:34:52;1.30;;;1.20;;
8526;SDS011;4301;48.362;8.478;2023-04-24T11:37:21;3.67;;;1.37;;
8526;SDS011;4301;48.362;8.478;2023-04-24T11:39:52;1.33;;;1.23;;
8526;SDS011;4301;48.362;8.478;2023-04-24T11:42:20;2.67;;;1.23;;
8526;SDS011;4301;48.362;8.478;2023-04-24T11:44:48;2.50;;;1.50;;
8526;SDS011;4301;48.362;8.478;2023-04-24T11:47:17;1.37;;;1.30;;
8526;SDS011;4301;48.362;8.478;2023-04-24T11:49:46;2.27;;;1.30;;
8526;SDS011;4301;48.362;8.478;2023-04-24T11:52:16;2.83;;;1.73;;
8526;SDS011;4301;48.362;8.478;2023-04-24T11:54:46;2.33;;;1.47;;
8526;SDS011;4301;48.362;8.478;2023-04-24T11:57:15;1.87;;;1.60;;
8526;SDS011;4301;48.362;8.478;2023-04-24T11:59:42;1.90;;;1.27;;
8526;SDS011;4301;48.362;8.478;2023-04-24T12:02:15;1.47;;;1.23;;
8526;SDS011;4301;48.362;8.478;2023-04-24T12:04:48;1.67;;;1.20;;
8526;SDS011;4301;48.362;8.478;2023-04-24T12:07:16;2.77;;;1.10;;
8526;SDS011;4301;48.362;8.478;2023-04-24T12:09:44;1.77;;;1.30;;
8526;SDS011;4301;48.362;8.478;2023-04-24T12:12:12;1.77;;;1.27;;
8526;SDS011;4301;48.362;8.478;2023-04-24T12:14:49;1.43;;;1.27;;
8526;SDS011;4301;48.362;8.478;2023-04-24T12:17:23;2.97;;;1.20;;
8526;SDS011;4301;48.362;8.478;2023-04-24T12:19:52;1.20;;;1.10;;
8526;SDS011;4301;48.362;8.478;2023-04-24T12:22:23;1.73;;;1.40;;
8526;SDS011;4301;48.362;8.478;2023-04-24T12:24:56;1.25;;;1.20;;
8526;SDS011;4301;48.362;8.478;2023-04-24T12:27:30;1.30;;;1.20;;
8526;SDS011;4301;48.362;8.478;2023-04-24T12:29:59;1.57;;;1.10;;
8526;SDS011;4301;48.362;8.478;2023-04-24T12:32:30;1.97;;;1.30;;
8526;SDS011;4301;48.362;8.478;2023-04-24T12:34:59;1.20;;;1.20;;
8526;SDS011;4301;48.362;8.478;2023-04-24T12:37:32;1.50;;;1.10;;
8526;SDS011;4301;48.362;8.478;2023-04-24T12:40:02;1.37;;;1.20;;
8526;SDS011;4301;48.362;8.478;2023-04-24T12:42:31;2.07;;;1.10;;
8526;SDS011;4301;48.362;8.478;2023-04-24T12:45:00;1.00;;;1.00;;
8526;SDS011;4301;48.362;8.478;2023-04-24T12:47:29;1.73;;;1.30;;
8526;SDS011;4301;48.362;8.478;2023-04-24T12:49:57;1.20;;;1.10;;
8526;SDS011;4301;48.362;8.478;2023-04-24T12:52:26;1.10;;;1.10;;
8526;SDS011;4301;48.362;8.478;2023-04-24T12:54:55;1.33;;;1.20;;
8526;SDS011;4301;48.362;8.478;2023-04-24T12:57:23;2.37;;;1.47;;
8526;SDS011;4301;48.362;8.478;2023-04-24T12:59:53;1.30;;;1.30;;
8526;SDS011;4301;48.362;8.478;2023-04-24T13:02:20;1.20;;;1.20;;
8526;SDS011;4301;48.362;8.478;2023-04-24T13:04:47;1.20;;;1.20;;
8526;SDS011;4301;48.362;8.478;2023-04-24T13:07:14;1.40;;;1.30;;
8526;SDS011;4301;48.362;8.478;2023-04-24T13:09:44;1.00;;;1.00;;
8526;SDS011;4301;48.362;8.478;2023-04-24T13:12:11;1.70;;;1.60;;
8526;SDS011;4301;48.362;8.478;2023-04-24T13:14:38;2.33;;;1.50;;
8526;SDS011;4301;48.362;8.478;2023-04-24T13:17:05;1.30;;;1.27;;
8526;SDS011;4301;48.362;8.478;2023-04-24T13:19:35;1.40;;;1.30;;
8526;SDS011;4301;48.362;8.478;2023-04-24T13:22:03;1.47;;;1.33;;
8526;SDS011;4301;48.362;8.478;2023-04-24T13:24:30;1.50;;;1.40;;
8526;SDS011;4301;48.362;8.478;2023-04-24T13:26:59;2.00;;;1.33;;
8526;SDS011;4301;48.362;8.478;2023-04-24T13:29:27;1.40;;;1.30;;
8526;SDS011;4301;48.362;8.478;2023-04-24T13:31:54;1.10;;;1.00;;
8526;SDS011;4301;48.362;8.478;2023-04-24T13:34:22;2.00;;;1.30;;
8526;SDS011;4301;48.362;8.478;2023-04-24T13:36:49;1.90;;;1.20;;
8526;SDS011;4301;48.362;8.478;2023-04-24T13:39:17;1.63;;;1.30;;
8526;SDS011;4301;48.362;8.478;2023-04-24T13:41:44;1.97;;;1.20;;
8526;SDS011;4301;48.362;8.478;2023-04-24T13:44:14;1.40;;;1.40;;
8526;SDS011;4301;48.362;8.478;2023-04-24T13:46:41;0.90;;;0.90;;
8526;SDS011;4301;48.362;8.478;2023-04-24T13:49:10;1.27;;;1.13;;
8526;SDS011;4301;48.362;8.478;2023-04-24T13:51:37;2.40;;;1.30;;
8526;SDS011;4301;48.362;8.478;2023-04-24T13:54:05;1.50;;;1.20;;
8526;SDS011;4301;48.362;8.478;2023-04-24T13:56:32;1.70;;;1.40;;
8526;SDS011;4301;48.362;8.478;2023-04-24T13:58:59;1.47;;;1.37;;
8526;SDS011;4301;48.362;8.478;2023-04-24T14:01:27;1.40;;;1.30;;
8526;SDS011;4301;48.362;8.478;2023-04-24T14:03:55;1.30;;;1.20;;
8526;SDS011;4301;48.362;8.478;2023-04-24T14:06:22;1.50;;;1.40;;
8526;SDS011;4301;48.362;8.478;2023-04-24T14:08:49;1.37;;;1.30;;
8526;SDS011;4301;48.362;8.478;2023-04-24T14:11:17;1.27;;;1.13;;
8526;SDS011;4301;48.362;8.478;2023-04-24T14:13:44;1.60;;;1.50;;
8526;SDS011;4301;48.362;8.478;2023-04-24T14:16:12;1.27;;;1.27;;
8526;SDS011;4301;48.362;8.478;2023-04-24T14:18:40;1.40;;;1.30;;
8526;SDS011;4301;48.362;8.478;2023-04-24T14:21:07;1.50;;;1.40;;
8526;SDS011;4301;48.362;8.478;2023-04-24T14:23:34;1.50;;;1.40;;
8526;SDS011;4301;48.362;8.478;2023-04-24T14:26:02;1.33;;;1.23;;
8526;SDS011;4301;48.362;8.478;2023-04-24T14:28:29;1.47;;;1.37;;
8526;SDS011;4301;48.362;8.478;2023-04-24T14:30:57;1.70;;;1.60;;
8526;SDS011;4301;48.362;8.478;2023-04-24T14:33:23;3.37;;;3.07;;
8526;SDS011;4301;48.362;8.478;2023-04-24T14:35:52;2.40;;;2.20;;
8526;SDS011;4301;48.362;8.478;2023-04-24T14:38:19;2.83;;;1.53;;
8526;SDS011;4301;48.362;8.478;2023-04-24T14:40:46;1.77;;;1.67;;
8526;SDS011;4301;48.362;8.478;2023-04-24T14:43:13;1.70;;;1.40;;
8526;SDS011;4301;48.362;8.478;2023-04-24T14:45:39;1.40;;;1.30;;
8526;SDS011;4301;48.362;8.478;2023-04-24T14:48:07;1.87;;;1.63;;
8526;SDS011;4301;48.362;8.478;2023-04-24T14:50:34;2.30;;;2.10;;
8526;SDS011;4301;48.362;8.478;2023-04-24T14:53:03;1.60;;;1.50;;
8526;SDS011;4301;48.362;8.478;2023-04-24T14:55:30;1.60;;;1.50;;
8526;SDS011;4301;48.362;8.478;2023-04-24T14:57:58;1.63;;;1.50;;
8526;SDS011;4301;48.362;8.478;2023-04-24T15:00:25;2.13;;;2.03;;
8526;SDS011;4301;48.362;8.478;2023-04-24T15:02:52;1.43;;;1.43;;
8526;SDS011;4301;48.362;8.478;2023-04-24T15:05:20;2.63;;;2.43;;
8526;SDS011;4301;48.362;8.478;2023-04-24T15:07:47;2.43;;;2.23;;
8526;SDS011;4301;48.362;8.478;2023-04-24T15:10:16;2.40;;;1.90;;
8526;SDS011;4301;48.362;8.478;2023-04-24T15:12:43;2.13;;;1.90;;
8526;SDS011;4301;48.362;8.478;2023-04-24T15:15:10;2.43;;;1.80;;
8526;SDS011;4301;48.362;8.478;2023-04-24T15:17:37;1.80;;;1.70;;
8526;SDS011;4301;48.362;8.478;2023-04-24T15:20:05;1.70;;;1.60;;
8526;SDS011;4301;48.362;8.478;2023-04-24T15:22:33;1.70;;;1.60;;
8526;SDS011;4301;48.362;8.478;2023-04-24T15:25:00;1.50;;;1.40;;